sensor_id;sensor_type;location;lat;lon;timestamp;P1;durP1;ratioP1;P2;durP2;ratioP2
15931;SDS011;8065;49.520;11.284;2023-01-23T00:00:02;12.70;;;7.93;;
15931;SDS011;8065;49.520;11.284;2023-01-23T00:02:29;10.63;;;7.93;;
15931;SDS011;8065;49.520;11.284;2023-01-23T00:04:55;12.17;;;8.03;;
15931;SDS011;8065;49.520;11.284;2023-01-23T00:07:22;12.10;;;8.23;;
15931;SDS011;8065;49.520;11.284;2023-01-23T00:09:49;12.13;;;8.43;;
15931;SDS011;8065;49.520;11.284;2023-01-23T00:12:16;12.37;;;8.70;;
15931;SDS011;8065;49.520;11.284;2023-01-23T00:14:42;10.93;;;8.10;;
15931;SDS011;8065;49.520;11.284;2023-01-23T00:17:09;12.53;;;8.10;;
15931;SDS011;8065;49.520;11.284;2023-01-23T00:19:35;12.57;;;8.53;;
15931;SDS011;8065;49.520;11.284;2023-01-23T00:22:02;11.23;;;8.13;;
15931;SDS011;8065;49.520;11.284;2023-01-23T00:24:28;13.50;;;9.00;;
15931;SDS011;8065;49.520;11.284;2023-01-23T00:26:56;13.30;;;8.83;;
15931;SDS011;8065;49.520;11.284;2023-01-23T00:29:22;15.17;;;8.87;;
15931;SDS011;8065;49.520;11.284;2023-01-23T00:31:49;13.23;;;9.03;;
15931;SDS011;8065;49.520;11.284;2023-01-23T00:34:15;12.90;;;8.93;;
15931;SDS011;8065;49.520;11.284;2023-01-23T00:36:42;13.40;;;8.97;;
15931;SDS011;8065;49.520;11.284;2023-01-23T00:39:12;12.00;;;8.43;;
15931;SDS011;8065;49.520;11.284;2023-01-23T00:41:41;15.07;;;9.47;;
15931;SDS011;8065;49.520;11.284;2023-01-23T00:44:10;15.60;;;9.63;;
15931;SDS011;8065;49.520;11.284;2023-01-23T00:46:37;13.90;;;9.73;;
15931;SDS011;8065;49.520;11.284;2023-01-23T00:49:04;13.63;;;9.33;;
15931;SDS011;8065;49.520;11.284;2023-01-23T00:51:31;15.83;;;10.43;;
15931;SDS011;8065;49.520;11.284;2023-01-23T00:53:58;15.47;;;10.07;;
15931;SDS011;8065;49.520;11.284;2023-01-23T00:56:24;15.67;;;10.13;;
15931;SDS011;8065;49.520;11.284;2023-01-23T00:58:51;17.90;;;11.20;;
15931;SDS011;8065;49.520;11.284;2023-01-23T01:01:19;14.73;;;9.73;;
15931;SDS011;8065;49.520;11.284;2023-01-23T01:03:46;17.80;;;11.03;;
15931;SDS011;8065;49.520;11.284;2023-01-23T01:06:13;15.43;;;9.97;;
15931;SDS011;8065;49.520;11.284;2023-01-23T01:08:41;14.83;;;9.70;;
15931;SDS011;8065;49.520;11.284;2023-01-23T01:11:07;15.27;;;10.03;;
15931;SDS011;8065;49.520;11.284;2023-01-23T01:13:34;15.90;;;10.40;;
15931;SDS011;8065;49.520;11.284;2023-01-23T01:16:00;14.73;;;10.10;;
15931;SDS011;8065;49.520;11.284;2023-01-23T01:18:28;13.80;;;9.70;;
15931;SDS011;8065;49.520;11.284;2023-01-23T01:20:55;14.27;;;9.47;;
15931;SDS011;8065;49.520;11.284;2023-01-23T01:23:22;18.23;;;10.40;;
15931;SDS011;8065;49.520;11.284;2023-01-23T01:25:49;15.93;;;10.20;;
15931;SDS011;8065;49.520;11.284;2023-01-23T01:28:15;15.77;;;10.57;;
15931;SDS011;8065;49.520;11.284;2023-01-23T01:30:42;16.97;;;10.63;;
15931;SDS011;8065;49.520;11.284;2023-01-23T01:33:08;15.57;;;10.67;;
15931;SDS011;8065;49.520;11.284;2023-01-23T01:35:38;17.23;;;11.37;;
15931;SDS011;8065;49.520;11.284;2023-01-23T01:38:06;16.13;;;10.30;;
15931;SDS011;8065;49.520;11.284;2023-01-23T01:40:33;18.67;;;11.63;;
15931;SDS011;8065;49.520;11.284;2023-01-23T01:43:01;17.23;;;11.07;;
15931;SDS011;8065;49.520;11.284;2023-01-23T01:48:33;14.40;;;9.87;;
15931;SDS011;8065;49.520;11.284;2023-01-23T01:51:06;17.30;;;10.90;;
15931;SDS011;8065;49.520;11.284;2023-01-23T01:53:36;17.23;;;11.43;;
15931;SDS011;8065;49.520;11.284;2023-01-23T01:56:04;16.63;;;11.00;;
15931;SDS011;8065;49.520;11.284;2023-01-23T01:58:34;18.07;;;11.60;;
15931;SDS011;8065;49.520;11.284;2023-01-23T02:01:02;18.23;;;11.37;;
15931;SDS011;8065;49.520;11.284;2023-01-23T02:03:29;16.27;;;10.67;;
15931;SDS011;8065;49.520;11.284;2023-01-23T02:05:55;16.87;;;10.63;;
15931;SDS011;8065;49.520;11.284;2023-01-23T02:08:24;16.73;;;10.57;;
15931;SDS011;8065;49.520;11.284;2023-01-23T02:10:54;17.73;;;11.10;;
15931;SDS011;8065;49.520;11.284;2023-01-23T02:13:23;17.27;;;11.53;;
15931;SDS011;8065;49.520;11.284;2023-01-23T02:15:54;18.03;;;11.30;;
15931;SDS011;8065;49.520;11.284;2023-01-23T02:18:22;16.37;;;10.50;;
15931;SDS011;8065;49.520;11.284;2023-01-23T02:20:50;17.27;;;10.87;;
15931;SDS011;8065;49.520;11.284;2023-01-23T02:23:19;16.83;;;10.80;;
15931;SDS011;8065;49.520;11.284;2023-01-23T02:25:56;16.40;;;10.80;;
15931;SDS011;8065;49.520;11.284;2023-01-23T02:28:26;17.73;;;11.37;;
15931;SDS011;8065;49.520;11.284;2023-01-23T02:31:02;17.87;;;10.73;;
15931;SDS011;8065;49.520;11.284;2023-01-23T02:33:50;17.40;;;10.70;;
15931;SDS011;8065;49.520;11.284;2023-01-23T02:36:18;17.93;;;11.30;;
15931;SDS011;8065;49.520;11.284;2023-01-23T02:38:50;16.93;;;10.50;;
15931;SDS011;8065;49.520;11.284;2023-01-23T02:41:24;16.00;;;10.73;;
15931;SDS011;8065;49.520;11.284;2023-01-23T02:43:53;16.13;;;10.63;;
15931;SDS011;8065;49.520;11.284;2023-01-23T02:46:22;18.17;;;10.87;;
15931;SDS011;8065;49.520;11.284;2023-01-23T02:48:49;17.37;;;11.07;;
15931;SDS011;8065;49.520;11.284;2023-01-23T02:51:15;17.40;;;11.57;;
15931;SDS011;8065;49.520;11.284;2023-01-23T02:53:42;16.17;;;10.97;;
15931;SDS011;8065;49.520;11.284;2023-01-23T02:56:09;15.93;;;10.30;;
15931;SDS011;8065;49.520;11.284;2023-01-23T02:58:37;15.50;;;10.33;;
15931;SDS011;8065;49.520;11.284;2023-01-23T03:01:21;16.73;;;10.70;;
15931;SDS011;8065;49.520;11.284;2023-01-23T03:03:48;17.80;;;10.57;;
15931;SDS011;8065;49.520;11.284;2023-01-23T03:06:17;15.73;;;9.67;;
15931;SDS011;8065;49.520;11.284;2023-01-23T03:08:44;15.07;;;10.03;;
15931;SDS011;8065;49.520;11.284;2023-01-23T03:11:13;14.03;;;9.63;;
15931;SDS011;8065;49.520;11.284;2023-01-23T03:13:43;15.57;;;10.07;;
15931;SDS011;8065;49.520;11.284;2023-01-23T03:16:10;13.27;;;9.13;;
15931;SDS011;8065;49.520;11.284;2023-01-23T03:18:36;16.60;;;9.73;;
15931;SDS011;8065;49.520;11.284;2023-01-23T03:21:03;15.73;;;9.47;;
15931;SDS011;8065;49.520;11.284;2023-01-23T03:23:31;13.20;;;8.70;;
15931;SDS011;8065;49.520;11.284;2023-01-23T03:25:57;14.90;;;9.63;;
15931;SDS011;8065;49.520;11.284;2023-01-23T03:28:24;14.37;;;8.93;;
15931;SDS011;8065;49.520;11.284;2023-01-23T03:31:10;12.93;;;8.80;;
15931;SDS011;8065;49.520;11.284;2023-01-23T03:33:37;11.83;;;8.20;;
15931;SDS011;8065;49.520;11.284;2023-01-23T03:36:07;13.67;;;9.10;;
15931;SDS011;8065;49.520;11.284;2023-01-23T03:38:34;13.43;;;8.83;;
15931;SDS011;8065;49.520;11.284;2023-01-23T03:41:00;13.00;;;8.87;;
15931;SDS011;8065;49.520;11.284;2023-01-23T03:43:44;15.50;;;9.27;;
15931;SDS011;8065;49.520;11.284;2023-01-23T03:46:12;12.07;;;8.33;;
15931;SDS011;8065;49.520;11.284;2023-01-23T03:48:39;14.90;;;9.67;;
15931;SDS011;8065;49.520;11.284;2023-01-23T03:51:05;14.10;;;9.80;;
15931;SDS011;8065;49.520;11.284;2023-01-23T03:53:32;14.20;;;9.03;;
15931;SDS011;8065;49.520;11.284;2023-01-23T03:55:58;13.10;;;9.23;;
15931;SDS011;8065;49.520;11.284;2023-01-23T03:58:25;13.23;;;9.47;;
15931;SDS011;8065;49.520;11.284;2023-01-23T04:00:54;15.33;;;9.30;;
15931;SDS011;8065;49.520;11.284;2023-01-23T04:03:22;12.37;;;9.03;;
15931;SDS011;8065;49.520;11.284;2023-01-23T04:05:49;13.50;;;9.20;;
15931;SDS011;8065;49.520;11.284;2023-01-23T04:08:20;14.47;;;9.23;;
15931;SDS011;8065;49.520;11.284;2023-01-23T04:10:47;14.80;;;9.30;;
15931;SDS011;8065;49.520;11.284;2023-01-23T04:13:14;13.90;;;9.23;;
15931;SDS011;8065;49.520;11.284;2023-01-23T04:15:41;14.30;;;9.43;;
15931;SDS011;8065;49.520;11.284;2023-01-23T04:18:07;13.70;;;8.70;;
15931;SDS011;8065;49.520;11.284;2023-01-23T04:20:35;14.10;;;9.23;;
15931;SDS011;8065;49.520;11.284;2023-01-23T04:23:01;12.87;;;8.87;;
15931;SDS011;8065;49.520;11.284;2023-01-23T04:25:28;14.00;;;9.13;;
15931;SDS011;8065;49.520;11.284;2023-01-23T04:27:54;13.77;;;9.40;;
15931;SDS011;8065;49.520;11.284;2023-01-23T04:30:21;14.87;;;9.00;;
15931;SDS011;8065;49.520;11.284;2023-01-23T04:32:47;14.63;;;9.13;;
15931;SDS011;8065;49.520;11.284;2023-01-23T04:35:13;14.87;;;9.37;;
15931;SDS011;8065;49.520;11.284;2023-01-23T04:37:41;14.80;;;9.00;;
15931;SDS011;8065;49.520;11.284;2023-01-23T04:40:08;15.23;;;9.27;;
15931;SDS011;8065;49.520;11.284;2023-01-23T04:42:36;13.97;;;8.60;;
15931;SDS011;8065;49.520;11.284;2023-01-23T04:45:02;14.43;;;9.33;;
15931;SDS011;8065;49.520;11.284;2023-01-23T04:47:29;12.20;;;8.40;;
15931;SDS011;8065;49.520;11.284;2023-01-23T04:49:55;13.83;;;8.70;;
15931;SDS011;8065;49.520;11.284;2023-01-23T04:52:22;11.73;;;7.63;;
15931;SDS011;8065;49.520;11.284;2023-01-23T04:54:50;11.77;;;7.77;;
15931;SDS011;8065;49.520;11.284;2023-01-23T04:57:16;13.70;;;8.67;;
15931;SDS011;8065;49.520;11.284;2023-01-23T04:59:42;13.27;;;8.97;;
15931;SDS011;8065;49.520;11.284;2023-01-23T05:02:09;12.63;;;8.50;;
15931;SDS011;8065;49.520;11.284;2023-01-23T05:04:35;15.23;;;8.63;;
15931;SDS011;8065;49.520;11.284;2023-01-23T05:07:02;13.27;;;8.93;;
15931;SDS011;8065;49.520;11.284;2023-01-23T05:09:29;39.93;;;24.43;;
15931;SDS011;8065;49.520;11.284;2023-01-23T05:11:56;30.63;;;21.37;;
15931;SDS011;8065;49.520;11.284;2023-01-23T05:14:23;19.93;;;14.30;;
15931;SDS011;8065;49.520;11.284;2023-01-23T05:16:49;14.07;;;10.17;;
15931;SDS011;8065;49.520;11.284;2023-01-23T05:19:16;16.03;;;11.77;;
15931;SDS011;8065;49.520;11.284;2023-01-23T05:21:42;15.17;;;10.80;;
15931;SDS011;8065;49.520;11.284;2023-01-23T05:24:09;15.07;;;11.93;;
15931;SDS011;8065;49.520;11.284;2023-01-23T05:26:35;13.90;;;10.90;;
15931;SDS011;8065;49.520;11.284;2023-01-23T05:29:03;16.43;;;13.33;;
15931;SDS011;8065;49.520;11.284;2023-01-23T05:31:29;14.73;;;11.03;;
15931;SDS011;8065;49.520;11.284;2023-01-23T05:33:56;13.67;;;9.53;;
15931;SDS011;8065;49.520;11.284;2023-01-23T05:36:22;14.27;;;9.83;;
15931;SDS011;8065;49.520;11.284;2023-01-23T05:38:49;12.93;;;9.07;;
15931;SDS011;8065;49.520;11.284;2023-01-23T05:41:15;12.70;;;9.00;;
15931;SDS011;8065;49.520;11.284;2023-01-23T05:43:41;12.67;;;8.53;;
15931;SDS011;8065;49.520;11.284;2023-01-23T05:46:09;13.17;;;8.47;;
15931;SDS011;8065;49.520;11.284;2023-01-23T05:48:36;12.13;;;8.10;;
15931;SDS011;8065;49.520;11.284;2023-01-23T05:51:02;14.00;;;7.90;;
15931;SDS011;8065;49.520;11.284;2023-01-23T05:53:29;17.23;;;10.47;;
15931;SDS011;8065;49.520;11.284;2023-01-23T05:55:55;16.33;;;10.47;;
15931;SDS011;8065;49.520;11.284;2023-01-23T05:58:22;12.83;;;8.13;;
15931;SDS011;8065;49.520;11.284;2023-01-23T06:00:48;14.60;;;10.00;;
15931;SDS011;8065;49.520;11.284;2023-01-23T06:03:16;14.60;;;9.67;;
15931;SDS011;8065;49.520;11.284;2023-01-23T06:05:42;15.00;;;10.73;;
15931;SDS011;8065;49.520;11.284;2023-01-23T06:08:09;15.47;;;10.40;;
15931;SDS011;8065;49.520;11.284;2023-01-23T06:10:36;11.80;;;8.30;;
15931;SDS011;8065;49.520;11.284;2023-01-23T06:13:03;13.97;;;9.20;;
15931;SDS011;8065;49.520;11.284;2023-01-23T06:15:29;13.43;;;8.97;;
15931;SDS011;8065;49.520;11.284;2023-01-23T06:17:56;13.67;;;8.83;;
15931;SDS011;8065;49.520;11.284;2023-01-23T06:20:23;14.97;;;8.83;;
15931;SDS011;8065;49.520;11.284;2023-01-23T06:22:50;13.90;;;8.93;;
15931;SDS011;8065;49.520;11.284;2023-01-23T06:25:16;13.43;;;9.20;;
15931;SDS011;8065;49.520;11.284;2023-01-23T06:27:44;11.47;;;7.97;;
15931;SDS011;8065;49.520;11.284;2023-01-23T06:30:11;13.70;;;8.70;;
15931;SDS011;8065;49.520;11.284;2023-01-23T06:32:38;12.77;;;8.03;;
15931;SDS011;8065;49.520;11.284;2023-01-23T06:35:05;13.40;;;9.30;;
15931;SDS011;8065;49.520;11.284;2023-01-23T06:37:33;15.70;;;9.53;;
15931;SDS011;8065;49.520;11.284;2023-01-23T06:39:59;13.63;;;8.87;;
15931;SDS011;8065;49.520;11.284;2023-01-23T06:42:26;15.30;;;9.63;;
15931;SDS011;8065;49.520;11.284;2023-01-23T06:44:52;14.73;;;9.57;;
15931;SDS011;8065;49.520;11.284;2023-01-23T06:47:18;12.27;;;8.37;;
15931;SDS011;8065;49.520;11.284;2023-01-23T06:49:48;13.97;;;9.10;;
15931;SDS011;8065;49.520;11.284;2023-01-23T06:52:14;13.43;;;9.60;;
15931;SDS011;8065;49.520;11.284;2023-01-23T06:54:42;14.63;;;8.73;;
15931;SDS011;8065;49.520;11.284;2023-01-23T06:57:08;16.47;;;9.80;;
15931;SDS011;8065;49.520;11.284;2023-01-23T06:59:37;15.30;;;10.13;;
15931;SDS011;8065;49.520;11.284;2023-01-23T07:02:03;14.33;;;9.03;;
15931;SDS011;8065;49.520;11.284;2023-01-23T07:04:29;14.20;;;9.43;;
15931;SDS011;8065;49.520;11.284;2023-01-23T07:06:56;14.63;;;8.97;;
15931;SDS011;8065;49.520;11.284;2023-01-23T07:09:22;14.23;;;9.40;;
15931;SDS011;8065;49.520;11.284;2023-01-23T07:11:50;15.23;;;9.83;;
15931;SDS011;8065;49.520;11.284;2023-01-23T07:14:16;14.70;;;9.70;;
15931;SDS011;8065;49.520;11.284;2023-01-23T07:16:43;14.93;;;9.40;;
15931;SDS011;8065;49.520;11.284;2023-01-23T07:19:09;15.43;;;9.37;;
15931;SDS011;8065;49.520;11.284;2023-01-23T07:21:36;12.70;;;8.77;;
15931;SDS011;8065;49.520;11.284;2023-01-23T07:24:03;14.17;;;9.10;;
15931;SDS011;8065;49.520;11.284;2023-01-23T07:26:30;14.10;;;8.77;;
15931;SDS011;8065;49.520;11.284;2023-01-23T07:28:58;14.20;;;8.97;;
15931;SDS011;8065;49.520;11.284;2023-01-23T07:31:24;14.83;;;9.03;;
15931;SDS011;8065;49.520;11.284;2023-01-23T07:33:51;13.47;;;9.10;;
15931;SDS011;8065;49.520;11.284;2023-01-23T07:36:17;14.13;;;9.13;;
15931;SDS011;8065;49.520;11.284;2023-01-23T07:38:44;14.43;;;9.00;;
15931;SDS011;8065;49.520;11.284;2023-01-23T07:41:10;12.43;;;8.27;;
15931;SDS011;8065;49.520;11.284;2023-01-23T07:43:36;13.90;;;9.10;;
15931;SDS011;8065;49.520;11.284;2023-01-23T07:46:04;15.47;;;9.40;;
15931;SDS011;8065;49.520;11.284;2023-01-23T07:48:31;13.03;;;9.00;;
15931;SDS011;8065;49.520;11.284;2023-01-23T07:51:00;14.10;;;8.97;;
15931;SDS011;8065;49.520;11.284;2023-01-23T07:53:27;13.57;;;9.63;;
15931;SDS011;8065;49.520;11.284;2023-01-23T07:55:53;14.27;;;9.37;;
15931;SDS011;8065;49.520;11.284;2023-01-23T07:58:20;12.23;;;8.50;;
15931;SDS011;8065;49.520;11.284;2023-01-23T08:00:46;13.10;;;9.10;;
15931;SDS011;8065;49.520;11.284;2023-01-23T08:03:14;11.87;;;8.73;;
15931;SDS011;8065;49.520;11.284;2023-01-23T08:05:40;12.93;;;8.67;;
15931;SDS011;8065;49.520;11.284;2023-01-23T08:08:07;15.67;;;9.93;;
15931;SDS011;8065;49.520;11.284;2023-01-23T08:10:33;13.57;;;8.60;;
15931;SDS011;8065;49.520;11.284;2023-01-23T08:13:00;13.37;;;8.93;;
15931;SDS011;8065;49.520;11.284;2023-01-23T08:15:26;11.10;;;7.83;;
15931;SDS011;8065;49.520;11.284;2023-01-23T08:17:53;12.70;;;8.80;;
15931;SDS011;8065;49.520;11.284;2023-01-23T08:20:20;12.10;;;7.90;;
15931;SDS011;8065;49.520;11.284;2023-01-23T08:22:47;12.70;;;8.73;;
15931;SDS011;8065;49.520;11.284;2023-01-23T08:25:14;12.53;;;8.77;;
15931;SDS011;8065;49.520;11.284;2023-01-23T08:27:40;12.30;;;8.00;;
15931;SDS011;8065;49.520;11.284;2023-01-23T08:30:07;12.73;;;8.43;;
15931;SDS011;8065;49.520;11.284;2023-01-23T08:32:35;15.43;;;9.27;;
15931;SDS011;8065;49.520;11.284;2023-01-23T08:35:01;15.37;;;8.80;;
15931;SDS011;8065;49.520;11.284;2023-01-23T08:37:30;11.90;;;8.60;;
15931;SDS011;8065;49.520;11.284;2023-01-23T08:39:57;12.20;;;8.67;;
15931;SDS011;8065;49.520;11.284;2023-01-23T08:42:23;12.60;;;8.57;;
15931;SDS011;8065;49.520;11.284;2023-01-23T08:44:50;12.40;;;8.77;;
15931;SDS011;8065;49.520;11.284;2023-01-23T08:47:16;12.10;;;8.70;;
15931;SDS011;8065;49.520;11.284;2023-01-23T08:49:43;12.30;;;8.63;;
15931;SDS011;8065;49.520;11.284;2023-01-23T08:52:09;12.33;;;8.23;;
15931;SDS011;8065;49.520;11.284;2023-01-23T08:54:37;11.20;;;7.90;;
15931;SDS011;8065;49.520;11.284;2023-01-23T08:57:03;11.10;;;7.83;;
15931;SDS011;8065;49.520;11.284;2023-01-23T08:59:30;12.90;;;8.60;;
15931;SDS011;8065;49.520;11.284;2023-01-23T09:01:56;11.83;;;8.40;;
15931;SDS011;8065;49.520;11.284;2023-01-23T09:04:23;11.87;;;8.73;;
15931;SDS011;8065;49.520;11.284;2023-01-23T09:06:50;10.70;;;7.30;;
15931;SDS011;8065;49.520;11.284;2023-01-23T09:09:16;12.13;;;8.33;;
15931;SDS011;8065;49.520;11.284;2023-01-23T09:11:44;12.93;;;8.70;;
15931;SDS011;8065;49.520;11.284;2023-01-23T09:14:11;11.90;;;8.13;;
15931;SDS011;8065;49.520;11.284;2023-01-23T09:16:37;11.87;;;8.27;;
15931;SDS011;8065;49.520;11.284;2023-01-23T09:19:05;12.23;;;8.37;;
15931;SDS011;8065;49.520;11.284;2023-01-23T09:21:32;14.73;;;10.93;;
15931;SDS011;8065;49.520;11.284;2023-01-23T09:23:58;16.70;;;12.93;;
15931;SDS011;8065;49.520;11.284;2023-01-23T09:26:25;14.43;;;10.87;;
15931;SDS011;8065;49.520;11.284;2023-01-23T09:28:53;14.23;;;9.37;;
15931;SDS011;8065;49.520;11.284;2023-01-23T09:31:19;11.20;;;8.70;;
15931;SDS011;8065;49.520;11.284;2023-01-23T09:33:46;12.37;;;9.27;;
15931;SDS011;8065;49.520;11.284;2023-01-23T09:36:13;12.07;;;9.23;;
15931;SDS011;8065;49.520;11.284;2023-01-23T09:38:40;11.17;;;8.37;;
15931;SDS011;8065;49.520;11.284;2023-01-23T09:41:07;11.87;;;8.03;;
15931;SDS011;8065;49.520;11.284;2023-01-23T09:43:37;11.40;;;7.90;;
15931;SDS011;8065;49.520;11.284;2023-01-23T09:46:11;9.93;;;7.60;;
15931;SDS011;8065;49.520;11.284;2023-01-23T09:48:41;10.30;;;7.57;;
15931;SDS011;8065;49.520;11.284;2023-01-23T09:51:12;9.60;;;7.17;;
15931;SDS011;8065;49.520;11.284;2023-01-23T09:53:44;10.13;;;7.37;;
15931;SDS011;8065;49.520;11.284;2023-01-23T09:56:13;10.10;;;7.50;;
15931;SDS011;8065;49.520;11.284;2023-01-23T09:58:48;10.27;;;7.13;;
15931;SDS011;8065;49.520;11.284;2023-01-23T10:01:25;11.57;;;7.80;;
15931;SDS011;8065;49.520;11.284;2023-01-23T10:03:54;10.93;;;7.87;;
15931;SDS011;8065;49.520;11.284;2023-01-23T10:06:21;10.93;;;7.90;;
15931;SDS011;8065;49.520;11.284;2023-01-23T10:08:53;11.60;;;8.00;;
15931;SDS011;8065;49.520;11.284;2023-01-23T10:11:34;10.40;;;7.70;;
15931;SDS011;8065;49.520;11.284;2023-01-23T10:14:14;8.80;;;7.20;;
15931;SDS011;8065;49.520;11.284;2023-01-23T10:16:59;11.97;;;8.47;;
15931;SDS011;8065;49.520;11.284;2023-01-23T10:19:35;15.67;;;10.50;;
15931;SDS011;8065;49.520;11.284;2023-01-23T10:22:10;11.67;;;8.33;;
15931;SDS011;8065;49.520;11.284;2023-01-23T10:24:51;10.90;;;8.73;;
15931;SDS011;8065;49.520;11.284;2023-01-23T10:27:21;11.60;;;8.33;;
15931;SDS011;8065;49.520;11.284;2023-01-23T10:29:51;12.33;;;9.17;;
15931;SDS011;8065;49.520;11.284;2023-01-23T10:32:25;14.07;;;9.23;;
15931;SDS011;8065;49.520;11.284;2023-01-23T10:34:55;15.03;;;9.90;;
15931;SDS011;8065;49.520;11.284;2023-01-23T10:37:31;17.03;;;10.57;;
15931;SDS011;8065;49.520;11.284;2023-01-23T10:40:06;11.70;;;8.27;;
15931;SDS011;8065;49.520;11.284;2023-01-23T10:42:36;11.93;;;8.10;;
15931;SDS011;8065;49.520;11.284;2023-01-23T10:45:03;9.93;;;6.90;;
15931;SDS011;8065;49.520;11.284;2023-01-23T10:47:33;9.60;;;7.20;;
15931;SDS011;8065;49.520;11.284;2023-01-23T10:50:02;9.07;;;6.73;;
15931;SDS011;8065;49.520;11.284;2023-01-23T10:52:31;9.13;;;7.20;;
15931;SDS011;8065;49.520;11.284;2023-01-23T10:55:00;8.57;;;6.50;;
15931;SDS011;8065;49.520;11.284;2023-01-23T10:57:27;8.93;;;6.97;;
15931;SDS011;8065;49.520;11.284;2023-01-23T10:59:57;8.17;;;6.53;;
15931;SDS011;8065;49.520;11.284;2023-01-23T11:02:29;8.97;;;6.87;;
15931;SDS011;8065;49.520;11.284;2023-01-23T11:04:58;8.83;;;6.47;;
15931;SDS011;8065;49.520;11.284;2023-01-23T11:07:25;9.30;;;7.13;;
15931;SDS011;8065;49.520;11.284;2023-01-23T11:09:54;8.53;;;6.50;;
15931;SDS011;8065;49.520;11.284;2023-01-23T11:12:23;8.93;;;6.67;;
15931;SDS011;8065;49.520;11.284;2023-01-23T11:14:50;8.43;;;6.83;;
15931;SDS011;8065;49.520;11.284;2023-01-23T11:17:36;9.47;;;6.97;;
15931;SDS011;8065;49.520;11.284;2023-01-23T11:20:10;8.67;;;6.93;;
15931;SDS011;8065;49.520;11.284;2023-01-23T11:22:49;7.97;;;6.30;;
15931;SDS011;8065;49.520;11.284;2023-01-23T11:25:28;7.73;;;5.70;;
15931;SDS011;8065;49.520;11.284;2023-01-23T11:27:57;7.80;;;5.97;;
15931;SDS011;8065;49.520;11.284;2023-01-23T11:30:38;7.20;;;5.70;;
15931;SDS011;8065;49.520;11.284;2023-01-23T11:33:11;8.00;;;6.13;;
15931;SDS011;8065;49.520;11.284;2023-01-23T11:35:46;8.93;;;5.93;;
15931;SDS011;8065;49.520;11.284;2023-01-23T11:38:19;8.33;;;5.63;;
15931;SDS011;8065;49.520;11.284;2023-01-23T11:40:55;8.27;;;5.73;;
15931;SDS011;8065;49.520;11.284;2023-01-23T11:43:21;7.30;;;5.70;;
15931;SDS011;8065;49.520;11.284;2023-01-23T11:45:52;6.70;;;5.63;;
15931;SDS011;8065;49.520;11.284;2023-01-23T11:48:35;7.43;;;6.20;;
15931;SDS011;8065;49.520;11.284;2023-01-23T11:51:19;6.70;;;5.73;;
15931;SDS011;8065;49.520;11.284;2023-01-23T11:53:52;6.97;;;5.60;;
15931;SDS011;8065;49.520;11.284;2023-01-23T11:56:32;6.40;;;5.70;;
15931;SDS011;8065;49.520;11.284;2023-01-23T11:59:18;6.17;;;5.53;;
15931;SDS011;8065;49.520;11.284;2023-01-23T12:01:59;7.07;;;5.57;;
15931;SDS011;8065;49.520;11.284;2023-01-23T12:04:50;6.17;;;5.33;;
15931;SDS011;8065;49.520;11.284;2023-01-23T12:07:28;6.27;;;5.50;;
15931;SDS011;8065;49.520;11.284;2023-01-23T12:10:07;6.40;;;5.23;;
15931;SDS011;8065;49.520;11.284;2023-01-23T12:12:49;6.00;;;4.93;;
15931;SDS011;8065;49.520;11.284;2023-01-23T12:15:33;6.10;;;4.83;;
15931;SDS011;8065;49.520;11.284;2023-01-23T12:18:11;6.33;;;5.00;;
15931;SDS011;8065;49.520;11.284;2023-01-23T12:20:50;7.63;;;5.37;;
15931;SDS011;8065;49.520;11.284;2023-01-23T12:23:27;6.37;;;5.03;;
15931;SDS011;8065;49.520;11.284;2023-01-23T12:26:06;6.27;;;5.13;;
15931;SDS011;8065;49.520;11.284;2023-01-23T12:28:49;6.17;;;5.53;;
15931;SDS011;8065;49.520;11.284;2023-01-23T12:31:31;5.67;;;5.10;;
15931;SDS011;8065;49.520;11.284;2023-01-23T12:34:12;8.83;;;5.70;;
15931;SDS011;8065;49.520;11.284;2023-01-23T12:36:54;9.57;;;6.93;;
15931;SDS011;8065;49.520;11.284;2023-01-23T12:42:25;7.53;;;6.33;;
15931;SDS011;8065;49.520;11.284;2023-01-23T12:44:57;8.00;;;5.13;;
15931;SDS011;8065;49.520;11.284;2023-01-23T12:47:30;7.23;;;5.40;;
15931;SDS011;8065;49.520;11.284;2023-01-23T12:50:00;6.37;;;5.20;;
15931;SDS011;8065;49.520;11.284;2023-01-23T12:52:29;6.87;;;6.00;;
15931;SDS011;8065;49.520;11.284;2023-01-23T12:55:02;7.77;;;5.73;;
15931;SDS011;8065;49.520;11.284;2023-01-23T12:57:32;9.70;;;6.73;;
15931;SDS011;8065;49.520;11.284;2023-01-23T13:00:08;8.33;;;6.93;;
15931;SDS011;8065;49.520;11.284;2023-01-23T13:02:48;7.33;;;5.87;;
15931;SDS011;8065;49.520;11.284;2023-01-23T13:05:22;7.23;;;5.80;;
15931;SDS011;8065;49.520;11.284;2023-01-23T13:07:56;7.87;;;6.07;;
15931;SDS011;8065;49.520;11.284;2023-01-23T13:10:30;8.57;;;6.57;;
15931;SDS011;8065;49.520;11.284;2023-01-23T13:13:23;6.03;;;5.00;;
15931;SDS011;8065;49.520;11.284;2023-01-23T13:16:02;7.50;;;5.53;;
15931;SDS011;8065;49.520;11.284;2023-01-23T13:18:35;6.70;;;5.37;;
15931;SDS011;8065;49.520;11.284;2023-01-23T13:21:16;6.13;;;5.10;;
15931;SDS011;8065;49.520;11.284;2023-01-23T13:24:12;6.87;;;5.37;;
15931;SDS011;8065;49.520;11.284;2023-01-23T13:36:32;7.67;;;5.37;;
15931;SDS011;8065;49.520;11.284;2023-01-23T13:41:51;6.10;;;5.10;;
15931;SDS011;8065;49.520;11.284;2023-01-23T13:44:34;7.80;;;6.10;;
15931;SDS011;8065;49.520;11.284;2023-01-23T13:47:08;5.47;;;4.70;;
15931;SDS011;8065;49.520;11.284;2023-01-23T13:50:04;8.17;;;5.63;;
15931;SDS011;8065;49.520;11.284;2023-01-23T13:52:35;6.07;;;5.23;;
15931;SDS011;8065;49.520;11.284;2023-01-23T13:55:21;6.43;;;5.10;;
15931;SDS011;8065;49.520;11.284;2023-01-23T13:58:09;6.60;;;5.33;;
15931;SDS011;8065;49.520;11.284;2023-01-23T14:00:39;9.00;;;5.23;;
15931;SDS011;8065;49.520;11.284;2023-01-23T14:03:31;6.77;;;5.57;;
15931;SDS011;8065;49.520;11.284;2023-01-23T14:06:33;7.33;;;5.60;;
15931;SDS011;8065;49.520;11.284;2023-01-23T14:09:00;6.10;;;5.00;;
15931;SDS011;8065;49.520;11.284;2023-01-23T14:11:30;5.80;;;4.67;;
15931;SDS011;8065;49.520;11.284;2023-01-23T14:14:01;8.30;;;5.43;;
15931;SDS011;8065;49.520;11.284;2023-01-23T14:16:47;8.43;;;5.50;;
15931;SDS011;8065;49.520;11.284;2023-01-23T14:19:20;8.87;;;5.43;;
15931;SDS011;8065;49.520;11.284;2023-01-23T14:21:49;8.03;;;5.90;;
15931;SDS011;8065;49.520;11.284;2023-01-23T14:24:19;6.30;;;5.30;;
15931;SDS011;8065;49.520;11.284;2023-01-23T14:26:48;8.23;;;6.30;;
15931;SDS011;8065;49.520;11.284;2023-01-23T14:29:18;7.07;;;5.50;;
15931;SDS011;8065;49.520;11.284;2023-01-23T14:31:47;6.83;;;5.70;;
15931;SDS011;8065;49.520;11.284;2023-01-23T14:34:15;6.73;;;5.23;;
15931;SDS011;8065;49.520;11.284;2023-01-23T14:36:43;6.40;;;5.33;;
15931;SDS011;8065;49.520;11.284;2023-01-23T14:39:13;6.77;;;5.53;;
15931;SDS011;8065;49.520;11.284;2023-01-23T14:41:43;6.20;;;5.40;;
15931;SDS011;8065;49.520;11.284;2023-01-23T14:44:12;7.20;;;5.63;;
15931;SDS011;8065;49.520;11.284;2023-01-23T14:46:45;8.80;;;6.67;;
15931;SDS011;8065;49.520;11.284;2023-01-23T14:49:17;7.20;;;5.67;;
15931;SDS011;8065;49.520;11.284;2023-01-23T14:51:57;9.97;;;6.53;;
15931;SDS011;8065;49.520;11.284;2023-01-23T14:54:24;9.27;;;6.60;;
15931;SDS011;8065;49.520;11.284;2023-01-23T14:56:51;9.37;;;6.60;;
15931;SDS011;8065;49.520;11.284;2023-01-23T14:59:22;9.47;;;6.60;;
15931;SDS011;8065;49.520;11.284;2023-01-23T15:01:52;9.57;;;6.33;;
15931;SDS011;8065;49.520;11.284;2023-01-23T15:04:21;10.47;;;6.70;;
15931;SDS011;8065;49.520;11.284;2023-01-23T15:06:51;8.23;;;6.40;;
15931;SDS011;8065;49.520;11.284;2023-01-23T15:09:20;9.53;;;7.23;;